sensor_id;sensor_type;location;lat;lon;timestamp;P1;durP1;ratioP1;P2;durP2;ratioP2
73747;SDS011;62056;52.130;5.428;2023-04-25T00:01:12;6.75;;;1.17;;
73747;SDS011;62056;52.130;5.428;2023-04-25T00:03:39;9.03;;;1.57;;
73747;SDS011;62056;52.130;5.428;2023-04-25T00:06:06;3.95;;;1.35;;
73747;SDS011;62056;52.130;5.428;2023-04-25T00:08:33;10.07;;;1.33;;
73747;SDS011;62056;52.130;5.428;2023-04-25T00:11:00;11.18;;;1.75;;
73747;SDS011;62056;52.130;5.428;2023-04-25T00:13:27;7.97;;;1.83;;
73747;SDS011;62056;52.130;5.428;2023-04-25T00:15:53;8.37;;;1.70;;
73747;SDS011;62056;52.130;5.428;2023-04-25T00:18:20;8.30;;;2.00;;
73747;SDS011;62056;52.130;5.428;2023-04-25T00:20:47;15.38;;;2.00;;
73747;SDS011;62056;52.130;5.428;2023-04-25T00:23:16;4.55;;;1.00;;
73747;SDS011;62056;52.130;5.428;2023-04-25T00:25:47;9.38;;;1.67;;
73747;SDS011;62056;52.130;5.428;2023-04-25T00:28:15;3.77;;;1.27;;
73747;SDS011;62056;52.130;5.428;2023-04-25T00:30:42;7.70;;;1.60;;
73747;SDS011;62056;52.130;5.428;2023-04-25T00:33:09;6.00;;;1.42;;
73747;SDS011;62056;52.130;5.428;2023-04-25T00:35:36;10.55;;;1.73;;
73747;SDS011;62056;52.130;5.428;2023-04-25T00:38:03;6.50;;;1.45;;
73747;SDS011;62056;52.130;5.428;2023-04-25T00:40:29;8.87;;;2.17;;
73747;SDS011;62056;52.130;5.428;2023-04-25T00:42:56;16.33;;;2.00;;
73747;SDS011;62056;52.130;5.428;2023-04-25T00:45:22;11.93;;;1.98;;
73747;SDS011;62056;52.130;5.428;2023-04-25T00:47:54;6.13;;;1.75;;
73747;SDS011;62056;52.130;5.428;2023-04-25T00:50:21;12.93;;;1.73;;
73747;SDS011;62056;52.130;5.428;2023-04-25T00:52:49;6.83;;;1.63;;
73747;SDS011;62056;52.130;5.428;2023-04-25T00:55:17;7.95;;;1.52;;
73747;SDS011;62056;52.130;5.428;2023-04-25T00:57:43;8.70;;;1.70;;
73747;SDS011;62056;52.130;5.428;2023-04-25T01:00:10;6.88;;;1.95;;
73747;SDS011;62056;52.130;5.428;2023-04-25T01:02:38;13.85;;;1.85;;
73747;SDS011;62056;52.130;5.428;2023-04-25T01:05:06;4.17;;;1.40;;
73747;SDS011;62056;52.130;5.428;2023-04-25T01:07:33;9.55;;;1.60;;
73747;SDS011;62056;52.130;5.428;2023-04-25T01:10:01;10.00;;;1.98;;
73747;SDS011;62056;52.130;5.428;2023-04-25T01:12:28;11.20;;;1.45;;
73747;SDS011;62056;52.130;5.428;2023-04-25T01:14:55;5.72;;;1.10;;
73747;SDS011;62056;52.130;5.428;2023-04-25T01:17:21;6.87;;;1.33;;
73747;SDS011;62056;52.130;5.428;2023-04-25T01:19:49;9.10;;;1.50;;
73747;SDS011;62056;52.130;5.428;2023-04-25T01:22:16;9.73;;;2.20;;
73747;SDS011;62056;52.130;5.428;2023-04-25T01:24:43;7.20;;;1.38;;
73747;SDS011;62056;52.130;5.428;2023-04-25T01:27:10;4.10;;;1.20;;
73747;SDS011;62056;52.130;5.428;2023-04-25T01:29:37;3.70;;;1.20;;
73747;SDS011;62056;52.130;5.428;2023-04-25T01:32:05;8.32;;;1.40;;
73747;SDS011;62056;52.130;5.428;2023-04-25T01:34:33;8.93;;;2.00;;
73747;SDS011;62056;52.130;5.428;2023-04-25T01:37:00;5.53;;;1.25;;
73747;SDS011;62056;52.130;5.428;2023-04-25T01:39:27;3.83;;;1.80;;
73747;SDS011;62056;52.130;5.428;2023-04-25T01:41:54;11.33;;;1.57;;
73747;SDS011;62056;52.130;5.428;2023-04-25T01:44:22;11.15;;;1.63;;
73747;SDS011;62056;52.130;5.428;2023-04-25T01:46:49;7.60;;;1.25;;
73747;SDS011;62056;52.130;5.428;2023-04-25T01:49:16;8.85;;;1.60;;
73747;SDS011;62056;52.130;5.428;2023-04-25T01:51:43;7.28;;;1.52;;
73747;SDS011;62056;52.130;5.428;2023-04-25T01:54:14;15.47;;;1.80;;
73747;SDS011;62056;52.130;5.428;2023-04-25T01:56:41;4.25;;;1.23;;
73747;SDS011;62056;52.130;5.428;2023-04-25T01:59:08;9.82;;;2.13;;
73747;SDS011;62056;52.130;5.428;2023-04-25T02:01:34;3.08;;;1.20;;
73747;SDS011;62056;52.130;5.428;2023-04-25T02:04:01;6.43;;;1.35;;
73747;SDS011;62056;52.130;5.428;2023-04-25T02:06:28;8.77;;;1.27;;
73747;SDS011;62056;52.130;5.428;2023-04-25T02:08:55;6.93;;;1.30;;
73747;SDS011;62056;52.130;5.428;2023-04-25T02:11:22;9.30;;;1.60;;
73747;SDS011;62056;52.130;5.428;2023-04-25T02:13:48;5.72;;;1.20;;
73747;SDS011;62056;52.130;5.428;2023-04-25T02:16:15;13.77;;;2.25;;
73747;SDS011;62056;52.130;5.428;2023-04-25T02:18:42;9.63;;;1.60;;
73747;SDS011;62056;52.130;5.428;2023-04-25T02:21:09;10.68;;;1.45;;
73747;SDS011;62056;52.130;5.428;2023-04-25T02:23:35;11.88;;;2.13;;
73747;SDS011;62056;52.130;5.428;2023-04-25T02:26:02;9.43;;;1.50;;
73747;SDS011;62056;52.130;5.428;2023-04-25T02:28:29;7.20;;;1.25;;
73747;SDS011;62056;52.130;5.428;2023-04-25T02:30:56;10.80;;;1.40;;
73747;SDS011;62056;52.130;5.428;2023-04-25T02:33:23;14.93;;;2.30;;
73747;SDS011;62056;52.130;5.428;2023-04-25T02:35:50;12.75;;;1.83;;
73747;SDS011;62056;52.130;5.428;2023-04-25T02:38:16;7.85;;;1.25;;
73747;SDS011;62056;52.130;5.428;2023-04-25T02:40:43;10.20;;;1.90;;
73747;SDS011;62056;52.130;5.428;2023-04-25T02:43:10;8.03;;;1.57;;
73747;SDS011;62056;52.130;5.428;2023-04-25T02:45:37;6.95;;;0.95;;
73747;SDS011;62056;52.130;5.428;2023-04-25T02:48:04;13.45;;;2.40;;
73747;SDS011;62056;52.130;5.428;2023-04-25T02:50:30;7.38;;;1.63;;
73747;SDS011;62056;52.130;5.428;2023-04-25T02:52:57;5.63;;;1.40;;
73747;SDS011;62056;52.130;5.428;2023-04-25T02:55:24;9.00;;;0.97;;
73747;SDS011;62056;52.130;5.428;2023-04-25T02:57:53;4.18;;;1.25;;
73747;SDS011;62056;52.130;5.428;2023-04-25T03:00:21;4.65;;;1.08;;
73747;SDS011;62056;52.130;5.428;2023-04-25T03:02:48;8.23;;;1.33;;
73747;SDS011;62056;52.130;5.428;2023-04-25T03:05:15;7.20;;;1.20;;
73747;SDS011;62056;52.130;5.428;2023-04-25T03:07:43;5.03;;;1.40;;
73747;SDS011;62056;52.130;5.428;2023-04-25T03:10:11;6.30;;;1.17;;
73747;SDS011;62056;52.130;5.428;2023-04-25T03:12:38;8.23;;;1.60;;
73747;SDS011;62056;52.130;5.428;2023-04-25T03:15:05;8.20;;;1.50;;
73747;SDS011;62056;52.130;5.428;2023-04-25T03:17:32;7.50;;;1.50;;
73747;SDS011;62056;52.130;5.428;2023-04-25T03:19:59;9.17;;;1.10;;
73747;SDS011;62056;52.130;5.428;2023-04-25T03:22:25;7.00;;;1.85;;
73747;SDS011;62056;52.130;5.428;2023-04-25T03:24:52;5.22;;;1.27;;
73747;SDS011;62056;52.130;5.428;2023-04-25T03:27:19;6.47;;;1.40;;
73747;SDS011;62056;52.130;5.428;2023-04-25T03:29:46;3.92;;;1.17;;
73747;SDS011;62056;52.130;5.428;2023-04-25T03:32:12;7.60;;;1.30;;
73747;SDS011;62056;52.130;5.428;2023-04-25T03:34:39;9.57;;;1.20;;
73747;SDS011;62056;52.130;5.428;2023-04-25T03:37:06;2.70;;;1.35;;
73747;SDS011;62056;52.130;5.428;2023-04-25T03:39:32;3.42;;;0.93;;
73747;SDS011;62056;52.130;5.428;2023-04-25T03:41:59;7.47;;;1.63;;
73747;SDS011;62056;52.130;5.428;2023-04-25T03:44:26;8.57;;;1.37;;
73747;SDS011;62056;52.130;5.428;2023-04-25T03:46:53;3.45;;;0.85;;
73747;SDS011;62056;52.130;5.428;2023-04-25T03:49:19;4.53;;;1.10;;
73747;SDS011;62056;52.130;5.428;2023-04-25T03:51:46;8.68;;;1.38;;
73747;SDS011;62056;52.130;5.428;2023-04-25T03:54:13;5.40;;;1.13;;
73747;SDS011;62056;52.130;5.428;2023-04-25T03:56:39;7.20;;;1.07;;
73747;SDS011;62056;52.130;5.428;2023-04-25T03:59:06;9.77;;;1.35;;
73747;SDS011;62056;52.130;5.428;2023-04-25T04:01:33;6.10;;;0.95;;
73747;SDS011;62056;52.130;5.428;2023-04-25T04:04:00;5.63;;;1.33;;
73747;SDS011;62056;52.130;5.428;2023-04-25T04:06:27;6.95;;;1.38;;
73747;SDS011;62056;52.130;5.428;2023-04-25T04:08:55;12.77;;;1.10;;
73747;SDS011;62056;52.130;5.428;2023-04-25T04:11:21;8.10;;;0.98;;
73747;SDS011;62056;52.130;5.428;2023-04-25T04:13:48;3.00;;;0.82;;
73747;SDS011;62056;52.130;5.428;2023-04-25T04:16:15;5.43;;;0.80;;
73747;SDS011;62056;52.130;5.428;2023-04-25T04:18:42;4.10;;;1.25;;
73747;SDS011;62056;52.130;5.428;2023-04-25T04:21:09;7.73;;;1.80;;
73747;SDS011;62056;52.130;5.428;2023-04-25T04:23:35;6.03;;;0.80;;
73747;SDS011;62056;52.130;5.428;2023-04-25T04:26:04;3.50;;;0.63;;
73747;SDS011;62056;52.130;5.428;2023-04-25T04:28:31;3.58;;;0.82;;
73747;SDS011;62056;52.130;5.428;2023-04-25T04:30:58;4.72;;;0.60;;
73747;SDS011;62056;52.130;5.428;2023-04-25T04:33:24;2.63;;;0.83;;
73747;SDS011;62056;52.130;5.428;2023-04-25T04:35:52;5.82;;;1.55;;
73747;SDS011;62056;52.130;5.428;2023-04-25T04:38:19;6.68;;;1.23;;
73747;SDS011;62056;52.130;5.428;2023-04-25T04:40:48;5.90;;;0.77;;
73747;SDS011;62056;52.130;5.428;2023-04-25T04:43:14;2.67;;;0.68;;
73747;SDS011;62056;52.130;5.428;2023-04-25T04:45:43;2.13;;;0.40;;
73747;SDS011;62056;52.130;5.428;2023-04-25T04:48:10;4.70;;;1.00;;
73747;SDS011;62056;52.130;5.428;2023-04-25T04:50:40;7.43;;;1.08;;
73747;SDS011;62056;52.130;5.428;2023-04-25T04:53:07;5.85;;;0.65;;
73747;SDS011;62056;52.130;5.428;2023-04-25T04:55:33;3.38;;;0.50;;
73747;SDS011;62056;52.130;5.428;2023-04-25T04:58:00;8.63;;;0.63;;
73747;SDS011;62056;52.130;5.428;2023-04-25T05:00:27;5.53;;;0.60;;
73747;SDS011;62056;52.130;5.428;2023-04-25T05:02:55;2.22;;;0.57;;
73747;SDS011;62056;52.130;5.428;2023-04-25T05:05:23;4.68;;;0.70;;
73747;SDS011;62056;52.130;5.428;2023-04-25T05:07:49;3.65;;;0.75;;
73747;SDS011;62056;52.130;5.428;2023-04-25T05:10:16;7.83;;;1.00;;
73747;SDS011;62056;52.130;5.428;2023-04-25T05:12:44;5.07;;;0.80;;
73747;SDS011;62056;52.130;5.428;2023-04-25T05:15:11;2.90;;;0.50;;
73747;SDS011;62056;52.130;5.428;2023-04-25T05:17:38;2.23;;;0.70;;
73747;SDS011;62056;52.130;5.428;2023-04-25T05:20:06;4.50;;;0.60;;
73747;SDS011;62056;52.130;5.428;2023-04-25T05:22:38;4.00;;;0.40;;
73747;SDS011;62056;52.130;5.428;2023-04-25T05:25:05;5.57;;;0.65;;
73747;SDS011;62056;52.130;5.428;2023-04-25T05:27:31;6.78;;;0.82;;
73747;SDS011;62056;52.130;5.428;2023-04-25T05:29:58;6.80;;;0.88;;
73747;SDS011;62056;52.130;5.428;2023-04-25T05:32:25;5.57;;;0.60;;
73747;SDS011;62056;52.130;5.428;2023-04-25T05:34:52;5.97;;;0.53;;
73747;SDS011;62056;52.130;5.428;2023-04-25T05:37:18;3.67;;;0.77;;
73747;SDS011;62056;52.130;5.428;2023-04-25T05:39:45;6.18;;;0.82;;
73747;SDS011;62056;52.130;5.428;2023-04-25T05:42:12;4.00;;;0.47;;
73747;SDS011;62056;52.130;5.428;2023-04-25T05:44:38;7.03;;;0.65;;
73747;SDS011;62056;52.130;5.428;2023-04-25T05:47:05;1.97;;;0.40;;
73747;SDS011;62056;52.130;5.428;2023-04-25T05:49:32;7.78;;;0.70;;
73747;SDS011;62056;52.130;5.428;2023-04-25T05:52:00;4.43;;;0.73;;
73747;SDS011;62056;52.130;5.428;2023-04-25T05:54:27;8.35;;;0.77;;
73747;SDS011;62056;52.130;5.428;2023-04-25T05:56:55;3.78;;;0.50;;
73747;SDS011;62056;52.130;5.428;2023-04-25T05:59:22;5.03;;;0.70;;
73747;SDS011;62056;52.130;5.428;2023-04-25T06:01:49;4.28;;;0.75;;
73747;SDS011;62056;52.130;5.428;2023-04-25T06:04:16;4.63;;;1.38;;
73747;SDS011;62056;52.130;5.428;2023-04-25T06:06:43;2.53;;;0.60;;
73747;SDS011;62056;52.130;5.428;2023-04-25T06:09:10;6.72;;;0.90;;
73747;SDS011;62056;52.130;5.428;2023-04-25T06:11:39;4.30;;;0.57;;
73747;SDS011;62056;52.130;5.428;2023-04-25T06:14:06;5.53;;;0.73;;
73747;SDS011;62056;52.130;5.428;2023-04-25T06:16:33;8.65;;;0.93;;
73747;SDS011;62056;52.130;5.428;2023-04-25T06:19:00;4.88;;;0.60;;
73747;SDS011;62056;52.130;5.428;2023-04-25T06:21:27;3.20;;;0.70;;
73747;SDS011;62056;52.130;5.428;2023-04-25T06:23:53;3.63;;;0.40;;
73747;SDS011;62056;52.130;5.428;2023-04-25T06:26:20;3.85;;;0.88;;
73747;SDS011;62056;52.130;5.428;2023-04-25T06:28:47;7.60;;;1.08;;
73747;SDS011;62056;52.130;5.428;2023-04-25T06:31:13;4.70;;;0.50;;
73747;SDS011;62056;52.130;5.428;2023-04-25T06:33:40;8.68;;;1.25;;
73747;SDS011;62056;52.130;5.428;2023-04-25T06:36:07;2.30;;;0.80;;
73747;SDS011;62056;52.130;5.428;2023-04-25T06:38:33;6.78;;;0.93;;
73747;SDS011;62056;52.130;5.428;2023-04-25T06:41:04;5.25;;;0.75;;
73747;SDS011;62056;52.130;5.428;2023-04-25T06:43:31;1.50;;;0.43;;
73747;SDS011;62056;52.130;5.428;2023-04-25T06:45:59;12.95;;;1.33;;
73747;SDS011;62056;52.130;5.428;2023-04-25T06:48:27;2.60;;;0.50;;
73747;SDS011;62056;52.130;5.428;2023-04-25T06:50:54;6.63;;;0.63;;
73747;SDS011;62056;52.130;5.428;2023-04-25T06:53:21;4.80;;;0.70;;
73747;SDS011;62056;52.130;5.428;2023-04-25T06:55:47;5.63;;;0.45;;
73747;SDS011;62056;52.130;5.428;2023-04-25T06:58:14;5.93;;;0.65;;
73747;SDS011;62056;52.130;5.428;2023-04-25T07:00:40;11.93;;;0.83;;
73747;SDS011;62056;52.130;5.428;2023-04-25T07:03:07;7.47;;;0.73;;
73747;SDS011;62056;52.130;5.428;2023-04-25T07:05:34;7.82;;;1.15;;
73747;SDS011;62056;52.130;5.428;2023-04-25T07:08:01;6.07;;;0.77;;
73747;SDS011;62056;52.130;5.428;2023-04-25T07:10:29;8.70;;;0.90;;
73747;SDS011;62056;52.130;5.428;2023-04-25T07:12:55;3.50;;;0.70;;
73747;SDS011;62056;52.130;5.428;2023-04-25T07:15:22;7.85;;;0.90;;
73747;SDS011;62056;52.130;5.428;2023-04-25T07:17:51;7.28;;;0.90;;
73747;SDS011;62056;52.130;5.428;2023-04-25T07:20:18;8.30;;;0.93;;
73747;SDS011;62056;52.130;5.428;2023-04-25T07:22:45;2.00;;;0.50;;
73747;SDS011;62056;52.130;5.428;2023-04-25T07:25:11;5.57;;;0.47;;
73747;SDS011;62056;52.130;5.428;2023-04-25T07:27:39;5.68;;;1.35;;
73747;SDS011;62056;52.130;5.428;2023-04-25T07:30:06;11.80;;;0.65;;
73747;SDS011;62056;52.130;5.428;2023-04-25T07:32:33;6.80;;;0.40;;
73747;SDS011;62056;52.130;5.428;2023-04-25T07:35:00;5.43;;;0.68;;
73747;SDS011;62056;52.130;5.428;2023-04-25T07:37:27;5.27;;;0.70;;
73747;SDS011;62056;52.130;5.428;2023-04-25T07:39:54;6.53;;;0.68;;
73747;SDS011;62056;52.130;5.428;2023-04-25T07:42:21;6.57;;;0.77;;
73747;SDS011;62056;52.130;5.428;2023-04-25T07:44:47;5.85;;;0.60;;
73747;SDS011;62056;52.130;5.428;2023-04-25T07:47:14;3.70;;;0.60;;
73747;SDS011;62056;52.130;5.428;2023-04-25T07:49:41;2.37;;;0.53;;
73747;SDS011;62056;52.130;5.428;2023-04-25T07:52:07;1.58;;;0.40;;
73747;SDS011;62056;52.130;5.428;2023-04-25T07:55:02;2.58;;;0.60;;
73747;SDS011;62056;52.130;5.428;2023-04-25T07:57:29;5.70;;;0.70;;
73747;SDS011;62056;52.130;5.428;2023-04-25T08:00:15;5.00;;;0.40;;
73747;SDS011;62056;52.130;5.428;2023-04-25T08:02:43;4.87;;;0.40;;
73747;SDS011;62056;52.130;5.428;2023-04-25T08:05:10;6.13;;;0.98;;
73747;SDS011;62056;52.130;5.428;2023-04-25T08:07:40;4.57;;;0.70;;
73747;SDS011;62056;52.130;5.428;2023-04-25T08:10:07;2.72;;;0.40;;
73747;SDS011;62056;52.130;5.428;2023-04-25T08:12:35;7.22;;;0.68;;
73747;SDS011;62056;52.130;5.428;2023-04-25T08:15:02;4.40;;;0.53;;
73747;SDS011;62056;52.130;5.428;2023-04-25T08:17:30;3.15;;;0.63;;
73747;SDS011;62056;52.130;5.428;2023-04-25T08:19:56;3.67;;;0.50;;
73747;SDS011;62056;52.130;5.428;2023-04-25T08:22:23;5.80;;;0.63;;
73747;SDS011;62056;52.130;5.428;2023-04-25T08:24:53;4.50;;;0.60;;
73747;SDS011;62056;52.130;5.428;2023-04-25T08:27:20;2.27;;;0.53;;
73747;SDS011;62056;52.130;5.428;2023-04-25T08:29:47;4.88;;;1.13;;
73747;SDS011;62056;52.130;5.428;2023-04-25T08:32:13;4.03;;;0.50;;
73747;SDS011;62056;52.130;5.428;2023-04-25T08:34:40;3.38;;;0.73;;
73747;SDS011;62056;52.130;5.428;2023-04-25T08:37:08;2.75;;;0.73;;
73747;SDS011;62056;52.130;5.428;2023-04-25T08:39:43;2.37;;;0.27;;
73747;SDS011;62056;52.130;5.428;2023-04-25T08:42:11;2.92;;;0.50;;
73747;SDS011;62056;52.130;5.428;2023-04-25T08:44:38;5.13;;;0.50;;
73747;SDS011;62056;52.130;5.428;2023-04-25T08:47:05;2.00;;;0.30;;
73747;SDS011;62056;52.130;5.428;2023-04-25T08:49:33;3.78;;;0.52;;
73747;SDS011;62056;52.130;5.428;2023-04-25T08:52:02;5.97;;;0.47;;
73747;SDS011;62056;52.130;5.428;2023-04-25T08:54:32;3.88;;;0.70;;
73747;SDS011;62056;52.130;5.428;2023-04-25T08:57:02;4.97;;;0.50;;
73747;SDS011;62056;52.130;5.428;2023-04-25T08:59:31;2.72;;;0.40;;
73747;SDS011;62056;52.130;5.428;2023-04-25T09:02:00;4.70;;;0.77;;
73747;SDS011;62056;52.130;5.428;2023-04-25T09:04:27;4.83;;;0.70;;
73747;SDS011;62056;52.130;5.428;2023-04-25T09:06:57;2.95;;;0.40;;
73747;SDS011;62056;52.130;5.428;2023-04-25T09:09:24;4.25;;;0.60;;
73747;SDS011;62056;52.130;5.428;2023-04-25T09:11:51;2.08;;;0.30;;
73747;SDS011;62056;52.130;5.428;2023-04-25T09:14:21;5.38;;;0.68;;
73747;SDS011;62056;52.130;5.428;2023-04-25T09:19:32;4.57;;;0.75;;
73747;SDS011;62056;52.130;5.428;2023-04-25T09:22:07;9.35;;;0.55;;
73747;SDS011;62056;52.130;5.428;2023-04-25T09:24:37;3.25;;;0.50;;
73747;SDS011;62056;52.130;5.428;2023-04-25T09:27:06;3.80;;;0.70;;
73747;SDS011;62056;52.130;5.428;2023-04-25T09:29:38;5.13;;;0.50;;
73747;SDS011;62056;52.130;5.428;2023-04-25T09:32:15;1.90;;;0.50;;
73747;SDS011;62056;52.130;5.428;2023-04-25T09:34:50;3.95;;;0.30;;
73747;SDS011;62056;52.130;5.428;2023-04-25T09:37:23;6.28;;;1.02;;
73747;SDS011;62056;52.130;5.428;2023-04-25T09:39:52;5.20;;;0.50;;
73747;SDS011;62056;52.130;5.428;2023-04-25T09:42:23;2.50;;;0.40;;
73747;SDS011;62056;52.130;5.428;2023-04-25T09:44:54;2.42;;;0.30;;
73747;SDS011;62056;52.130;5.428;2023-04-25T09:47:23;2.50;;;0.45;;
73747;SDS011;62056;52.130;5.428;2023-04-25T09:49:51;2.28;;;0.60;;
73747;SDS011;62056;52.130;5.428;2023-04-25T09:52:19;3.78;;;0.70;;
73747;SDS011;62056;52.130;5.428;2023-04-25T09:54:51;3.43;;;1.67;;
73747;SDS011;62056;52.130;5.428;2023-04-25T09:57:20;4.47;;;0.55;;
73747;SDS011;62056;52.130;5.428;2023-04-25T09:59:52;1.25;;;0.40;;
73747;SDS011;62056;52.130;5.428;2023-04-25T10:02:23;3.78;;;0.60;;
73747;SDS011;62056;52.130;5.428;2023-04-25T10:05:19;4.32;;;0.40;;
73747;SDS011;62056;52.130;5.428;2023-04-25T10:07:46;3.60;;;0.40;;
73747;SDS011;62056;52.130;5.428;2023-04-25T10:10:13;2.97;;;0.30;;
73747;SDS011;62056;52.130;5.428;2023-04-25T10:12:39;3.30;;;0.30;;
73747;SDS011;62056;52.130;5.428;2023-04-25T10:15:07;2.53;;;0.30;;
73747;SDS011;62056;52.130;5.428;2023-04-25T10:17:35;5.88;;;0.43;;
73747;SDS011;62056;52.130;5.428;2023-04-25T10:20:02;3.03;;;0.50;;
73747;SDS011;62056;52.130;5.428;2023-04-25T10:25:06;2.78;;;0.88;;
73747;SDS011;62056;52.130;5.428;2023-04-25T10:27:34;3.90;;;0.73;;
73747;SDS011;62056;52.130;5.428;2023-04-25T10:32:36;3.03;;;0.47;;
73747;SDS011;62056;52.130;5.428;2023-04-25T10:35:10;4.30;;;0.45;;
73747;SDS011;62056;52.130;5.428;2023-04-25T10:40:32;3.58;;;0.40;;
73747;SDS011;62056;52.130;5.428;2023-04-25T10:46:02;2.73;;;0.30;;
73747;SDS011;62056;52.130;5.428;2023-04-25T10:48:38;3.25;;;0.45;;
73747;SDS011;62056;52.130;5.428;2023-04-25T10:51:19;4.20;;;0.40;;
73747;SDS011;62056;52.130;5.428;2023-04-25T10:54:05;4.47;;;0.75;;
73747;SDS011;62056;52.130;5.428;2023-04-25T10:56:38;2.65;;;0.38;;
73747;SDS011;62056;52.130;5.428;2023-04-25T11:01:48;2.83;;;0.60;;
73747;SDS011;62056;52.130;5.428;2023-04-25T11:04:29;2.90;;;1.38;;
73747;SDS011;62056;52.130;5.428;2023-04-25T11:09:49;1.80;;;0.30;;
73747;SDS011;62056;52.130;5.428;2023-04-25T11:12:16;1.83;;;0.47;;
73747;SDS011;62056;52.130;5.428;2023-04-25T11:14:43;3.55;;;0.40;;
73747;SDS011;62056;52.130;5.428;2023-04-25T11:17:10;5.13;;;0.73;;
73747;SDS011;62056;52.130;5.428;2023-04-25T11:19:38;6.00;;;0.82;;
73747;SDS011;62056;52.130;5.428;2023-04-25T11:22:05;1.77;;;0.52;;
73747;SDS011;62056;52.130;5.428;2023-04-25T11:24:33;3.27;;;0.60;;
73747;SDS011;62056;52.130;5.428;2023-04-25T11:27:02;2.80;;;0.40;;
73747;SDS011;62056;52.130;5.428;2023-04-25T11:29:30;5.30;;;0.60;;
73747;SDS011;62056;52.130;5.428;2023-04-25T11:31:58;1.65;;;0.47;;
73747;SDS011;62056;52.130;5.428;2023-04-25T11:34:27;1.88;;;0.70;;
73747;SDS011;62056;52.130;5.428;2023-04-25T11:36:57;2.90;;;0.40;;
73747;SDS011;62056;52.130;5.428;2023-04-25T11:39:27;3.65;;;0.50;;
73747;SDS011;62056;52.130;5.428;2023-04-25T11:41:54;2.33;;;0.50;;
73747;SDS011;62056;52.130;5.428;2023-04-25T11:44:21;3.17;;;0.40;;
73747;SDS011;62056;52.130;5.428;2023-04-25T11:46:49;2.80;;;0.77;;
73747;SDS011;62056;52.130;5.428;2023-04-25T11:49:16;1.47;;;0.33;;
73747;SDS011;62056;52.130;5.428;2023-04-25T11:51:46;1.83;;;0.40;;
73747;SDS011;62056;52.130;5.428;2023-04-25T11:54:15;1.20;;;0.40;;
73747;SDS011;62056;52.130;5.428;2023-04-25T11:56:42;1.00;;;0.30;;
73747;SDS011;62056;52.130;5.428;2023-04-25T11:59:22;2.33;;;0.50;;
73747;SDS011;62056;52.130;5.428;2023-04-25T12:01:53;3.27;;;0.50;;
73747;SDS011;62056;52.130;5.428;2023-04-25T12:04:29;4.70;;;0.60;;
73747;SDS011;62056;52.130;5.428;2023-04-25T12:07:04;2.40;;;0.30;;
73747;SDS011;62056;52.130;5.428;2023-04-25T12:09:37;3.60;;;0.68;;
73747;SDS011;62056;52.130;5.428;2023-04-25T12:12:09;1.52;;;0.50;;
73747;SDS011;62056;52.130;5.428;2023-04-25T12:14:40;6.80;;;0.40;;
73747;SDS011;62056;52.130;5.428;2023-04-25T12:17:35;5.93;;;0.50;;
73747;SDS011;62056;52.130;5.428;2023-04-25T12:20:08;1.80;;;0.73;;
73747;SDS011;62056;52.130;5.428;2023-04-25T12:22:41;2.42;;;0.50;;
73747;SDS011;62056;52.130;5.428;2023-04-25T12:25:11;3.72;;;0.43;;
73747;SDS011;62056;52.130;5.428;2023-04-25T12:27:39;3.17;;;0.50;;
73747;SDS011;62056;52.130;5.428;2023-04-25T12:30:08;1.95;;;0.50;;
73747;SDS011;62056;52.130;5.428;2023-04-25T12:32:35;3.35;;;1.65;;
73747;SDS011;62056;52.130;5.428;2023-04-25T12:35:03;1.73;;;0.40;;
73747;SDS011;62056;52.130;5.428;2023-04-25T12:37:30;1.55;;;0.50;;
73747;SDS011;62056;52.130;5.428;2023-04-25T12:39:57;2.77;;;0.30;;
73747;SDS011;62056;52.130;5.428;2023-04-25T12:42:24;1.17;;;0.38;;
73747;SDS011;62056;52.130;5.428;2023-04-25T12:44:51;2.38;;;0.35;;
73747;SDS011;62056;52.130;5.428;2023-04-25T12:47:18;3.35;;;0.50;;
73747;SDS011;62056;52.130;5.428;2023-04-25T12:49:45;1.58;;;0.30;;
73747;SDS011;62056;52.130;5.428;2023-04-25T12:52:11;1.27;;;0.30;;
73747;SDS011;62056;52.130;5.428;2023-04-25T12:54:38;2.00;;;0.60;;
73747;SDS011;62056;52.130;5.428;2023-04-25T12:57:05;1.85;;;0.90;;
73747;SDS011;62056;52.130;5.428;2023-04-25T12:59:32;2.67;;;0.40;;
73747;SDS011;62056;52.130;5.428;2023-04-25T13:01:58;3.22;;;0.30;;
73747;SDS011;62056;52.130;5.428;2023-04-25T13:04:25;3.20;;;0.73;;
73747;SDS011;62056;52.130;5.428;2023-04-25T13:06:54;0.90;;;0.30;;
73747;SDS011;62056;52.130;5.428;2023-04-25T13:09:21;1.95;;;0.30;;
73747;SDS011;62056;52.130;5.428;2023-04-25T13:11:48;1.40;;;0.40;;
73747;SDS011;62056;52.130;5.428;2023-04-25T13:14:15;5.45;;;0.50;;
73747;SDS011;62056;52.130;5.428;2023-04-25T13:16:41;2.33;;;0.50;;
73747;SDS011;62056;52.130;5.428;2023-04-25T13:19:08;3.22;;;0.45;;
73747;SDS011;62056;52.130;5.428;2023-04-25T13:21:37;2.28;;;0.50;;
73747;SDS011;62056;52.130;5.428;2023-04-25T13:24:04;2.67;;;0.75;;
73747;SDS011;62056;52.130;5.428;2023-04-25T13:26:31;3.13;;;0.65;;
73747;SDS011;62056;52.130;5.428;2023-04-25T13:28:58;1.17;;;0.43;;
73747;SDS011;62056;52.130;5.428;2023-04-25T13:31:26;1.65;;;0.40;;
73747;SDS011;62056;52.130;5.428;2023-04-25T13:33:53;5.95;;;0.57;;
73747;SDS011;62056;52.130;5.428;2023-04-25T13:36:20;2.15;;;0.50;;
73747;SDS011;62056;52.130;5.428;2023-04-25T13:38:47;5.78;;;0.43;;
73747;SDS011;62056;52.130;5.428;2023-04-25T13:41:15;2.87;;;0.80;;
73747;SDS011;62056;52.130;5.428;2023-04-25T13:43:46;3.40;;;0.50;;
73747;SDS011;62056;52.130;5.428;2023-04-25T13:46:14;1.17;;;0.30;;
73747;SDS011;62056;52.130;5.428;2023-04-25T13:49:01;1.67;;;0.30;;
73747;SDS011;62056;52.130;5.428;2023-04-25T13:51:38;2.78;;;0.70;;
73747;SDS011;62056;52.130;5.428;2023-04-25T13:54:05;3.97;;;0.50;;
73747;SDS011;62056;52.130;5.428;2023-04-25T13:56:32;2.60;;;0.47;;
73747;SDS011;62056;52.130;5.428;2023-04-25T13:58:58;4.07;;;0.55;;
73747;SDS011;62056;52.130;5.428;2023-04-25T14:01:25;4.70;;;0.50;;
73747;SDS011;62056;52.130;5.428;2023-04-25T14:03:53;2.20;;;0.70;;
73747;SDS011;62056;52.130;5.428;2023-04-25T14:06:20;1.97;;;0.83;;
73747;SDS011;62056;52.130;5.428;2023-04-25T14:08:51;2.65;;;0.65;;
73747;SDS011;62056;52.130;5.428;2023-04-25T14:11:18;4.65;;;0.70;;
73747;SDS011;62056;52.130;5.428;2023-04-25T14:13:45;2.45;;;0.40;;
73747;SDS011;62056;52.130;5.428;2023-04-25T14:16:12;5.47;;;0.57;;
73747;SDS011;62056;52.130;5.428;2023-04-25T14:18:39;6.23;;;0.50;;
73747;SDS011;62056;52.130;5.428;2023-04-25T14:21:06;1.75;;;0.52;;
73747;SDS011;62056;52.130;5.428;2023-04-25T14:23:33;3.35;;;0.70;;
73747;SDS011;62056;52.130;5.428;2023-04-25T14:25:59;2.30;;;0.50;;
73747;SDS011;62056;52.130;5.428;2023-04-25T14:28:26;1.35;;;0.50;;
73747;SDS011;62056;52.130;5.428;2023-04-25T14:30:55;2.43;;;0.50;;
73747;SDS011;62056;52.130;5.428;2023-04-25T14:33:22;2.08;;;0.50;;
73747;SDS011;62056;52.130;5.428;2023-04-25T14:35:49;5.70;;;0.60;;
73747;SDS011;62056;52.130;5.428;2023-04-25T14:38:16;3.67;;;0.60;;
73747;SDS011;62056;52.130;5.428;2023-04-25T14:40:43;3.88;;;0.50;;
73747;SDS011;62056;52.130;5.428;2023-04-25T14:43:10;2.63;;;0.73;;
73747;SDS011;62056;52.130;5.428;2023-04-25T14:45:37;3.45;;;0.40;;
73747;SDS011;62056;52.130;5.428;2023-04-25T14:48:04;3.17;;;0.30;;
73747;SDS011;62056;52.130;5.428;2023-04-25T14:50:31;2.53;;;0.38;;
73747;SDS011;62056;52.130;5.428;2023-04-25T14:52:58;2.28;;;0.52;;
73747;SDS011;62056;52.130;5.428;2023-04-25T14:55:27;3.83;;;0.60;;
73747;SDS011;62056;52.130;5.428;2023-04-25T14:57:54;2.45;;;0.50;;
73747;SDS011;62056;52.130;5.428;2023-04-25T15:00:22;2.03;;;0.40;;
73747;SDS011;62056;52.130;5.428;2023-04-25T15:02:51;1.70;;;0.30;;
73747;SDS011;62056;52.130;5.428;2023-04-25T15:05:20;1.38;;;0.45;;
73747;SDS011;62056;52.130;5.428;2023-04-25T15:07:47;2.77;;;0.37;;
73747;SDS011;62056;52.130;5.428;2023-04-25T15:10:14;6.45;;;0.60;;
73747;SDS011;62056;52.130;5.428;2023-04-25T15:12:42;1.00;;;0.50;;